sensor_id;sensor_type;location;lat;lon;timestamp;temperature;humidity
62583;DHT22;48641;51.676;5.808;2023-02-28T00:00:34;13.00;58.90
62583;DHT22;48641;51.676;5.808;2023-02-28T00:03:00;13.00;58.90
62583;DHT22;48641;51.676;5.808;2023-02-28T00:05:27;13.00;58.90
62583;DHT22;48641;51.676;5.808;2023-02-28T00:07:53;13.00;58.90
62583;DHT22;48641;51.676;5.808;2023-02-28T00:10:22;12.90;58.90
62583;DHT22;48641;51.676;5.808;2023-02-28T00:12:48;13.00;58.90
62583;DHT22;48641;51.676;5.808;2023-02-28T00:15:14;12.90;58.90
62583;DHT22;48641;51.676;5.808;2023-02-28T00:17:40;12.90;59.10
62583;DHT22;48641;51.676;5.808;2023-02-28T00:20:06;12.90;59.10
62583;DHT22;48641;51.676;5.808;2023-02-28T00:22:36;12.90;59.10
62583;DHT22;48641;51.676;5.808;2023-02-28T00:25:03;12.90;59.10
62583;DHT22;48641;51.676;5.808;2023-02-28T00:27:29;12.90;59.00
62583;DHT22;48641;51.676;5.808;2023-02-28T00:29:55;12.90;59.00
62583;DHT22;48641;51.676;5.808;2023-02-28T00:32:20;12.90;59.00
62583;DHT22;48641;51.676;5.808;2023-02-28T00:34:46;12.90;58.90
62583;DHT22;48641;51.676;5.808;2023-02-28T00:37:12;12.90;58.90
62583;DHT22;48641;51.676;5.808;2023-02-28T00:39:38;12.90;58.90
62583;DHT22;48641;51.676;5.808;2023-02-28T00:42:06;12.90;58.90
62583;DHT22;48641;51.676;5.808;2023-02-28T00:44:32;12.90;58.80
62583;DHT22;48641;51.676;5.808;2023-02-28T00:46:58;12.90;58.90
62583;DHT22;48641;51.676;5.808;2023-02-28T00:49:25;12.90;58.90
62583;DHT22;48641;51.676;5.808;2023-02-28T00:51:51;12.90;58.80
62583;DHT22;48641;51.676;5.808;2023-02-28T00:54:16;12.90;58.90
62583;DHT22;48641;51.676;5.808;2023-02-28T00:56:42;12.90;58.80
62583;DHT22;48641;51.676;5.808;2023-02-28T00:59:07;12.90;58.80
62583;DHT22;48641;51.676;5.808;2023-02-28T01:01:33;12.90;58.70
62583;DHT22;48641;51.676;5.808;2023-02-28T01:03:59;12.90;58.80
62583;DHT22;48641;51.676;5.808;2023-02-28T01:06:24;12.90;58.70
62583;DHT22;48641;51.676;5.808;2023-02-28T01:08:50;12.90;58.70
62583;DHT22;48641;51.676;5.808;2023-02-28T01:11:17;12.80;58.70
62583;DHT22;48641;51.676;5.808;2023-02-28T01:13:44;12.90;58.70
62583;DHT22;48641;51.676;5.808;2023-02-28T01:16:10;12.80;58.60
62583;DHT22;48641;51.676;5.808;2023-02-28T01:18:36;12.80;59.60
62583;DHT22;48641;51.676;5.808;2023-02-28T01:21:11;12.80;58.60
62583;DHT22;48641;51.676;5.808;2023-02-28T01:23:38;12.80;58.60
62583;DHT22;48641;51.676;5.808;2023-02-28T01:26:24;12.80;58.60
62583;DHT22;48641;51.676;5.808;2023-02-28T01:28:51;12.80;58.50
62583;DHT22;48641;51.676;5.808;2023-02-28T01:31:18;12.80;58.60
62583;DHT22;48641;51.676;5.808;2023-02-28T01:33:46;12.80;58.60
62583;DHT22;48641;51.676;5.808;2023-02-28T01:36:18;12.80;58.60
62583;DHT22;48641;51.676;5.808;2023-02-28T01:38:44;12.80;58.60
62583;DHT22;48641;51.676;5.808;2023-02-28T01:41:16;12.80;58.60
62583;DHT22;48641;51.676;5.808;2023-02-28T01:46:09;12.80;58.70
62583;DHT22;48641;51.676;5.808;2023-02-28T01:48:38;12.80;58.60
62583;DHT22;48641;51.676;5.808;2023-02-28T01:51:10;12.80;58.60
62583;DHT22;48641;51.676;5.808;2023-02-28T01:53:45;12.80;58.60
62583;DHT22;48641;51.676;5.808;2023-02-28T01:56:13;12.80;58.60
62583;DHT22;48641;51.676;5.808;2023-02-28T01:58:47;12.70;58.50
62583;DHT22;48641;51.676;5.808;2023-02-28T02:01:13;12.70;58.50
62583;DHT22;48641;51.676;5.808;2023-02-28T02:03:49;12.70;58.60
62583;DHT22;48641;51.676;5.808;2023-02-28T02:06:24;12.70;59.50
62583;DHT22;48641;51.676;5.808;2023-02-28T02:08:51;12.70;58.50
62583;DHT22;48641;51.676;5.808;2023-02-28T02:11:19;12.70;58.50
62583;DHT22;48641;51.676;5.808;2023-02-28T02:17:18;12.70;58.40
62583;DHT22;48641;51.676;5.808;2023-02-28T02:25:33;12.60;58.60
62583;DHT22;48641;51.676;5.808;2023-02-28T02:28:28;12.60;58.70
62583;DHT22;48641;51.676;5.808;2023-02-28T02:36:33;12.60;58.60
62583;DHT22;48641;51.676;5.808;2023-02-28T02:39:16;12.60;58.60
62583;DHT22;48641;51.676;5.808;2023-02-28T02:41:52;12.60;58.70
62583;DHT22;48641;51.676;5.808;2023-02-28T02:44:26;12.60;58.70
62583;DHT22;48641;51.676;5.808;2023-02-28T02:47:02;12.60;58.80
62583;DHT22;48641;51.676;5.808;2023-02-28T02:49:32;12.60;58.70
62583;DHT22;48641;51.676;5.808;2023-02-28T02:52:02;12.60;58.70
62583;DHT22;48641;51.676;5.808;2023-02-28T02:54:32;12.60;58.70
62583;DHT22;48641;51.676;5.808;2023-02-28T02:57:03;12.60;58.70
62583;DHT22;48641;51.676;5.808;2023-02-28T02:59:30;12.60;58.60
62583;DHT22;48641;51.676;5.808;2023-02-28T03:02:00;12.60;58.60
62583;DHT22;48641;51.676;5.808;2023-02-28T03:04:30;12.60;58.60
62583;DHT22;48641;51.676;5.808;2023-02-28T03:06:57;12.60;58.60
62583;DHT22;48641;51.676;5.808;2023-02-28T03:09:24;12.60;58.60
62583;DHT22;48641;51.676;5.808;2023-02-28T03:11:52;12.60;58.60
62583;DHT22;48641;51.676;5.808;2023-02-28T03:14:33;12.60;58.60
62583;DHT22;48641;51.676;5.808;2023-02-28T03:17:33;12.60;58.70
62583;DHT22;48641;51.676;5.808;2023-02-28T03:20:07;12.60;58.60
62583;DHT22;48641;51.676;5.808;2023-02-28T03:25:43;12.60;58.70
62583;DHT22;48641;51.676;5.808;2023-02-28T03:28:31;12.60;58.60
62583;DHT22;48641;51.676;5.808;2023-02-28T03:31:07;12.60;58.70
62583;DHT22;48641;51.676;5.808;2023-02-28T03:33:47;12.50;58.70
62583;DHT22;48641;51.676;5.808;2023-02-28T03:36:23;12.60;58.70
62583;DHT22;48641;51.676;5.808;2023-02-28T03:39:03;12.50;58.70
62583;DHT22;48641;51.676;5.808;2023-02-28T03:41:47;12.50;58.70
62583;DHT22;48641;51.676;5.808;2023-02-28T03:44:24;12.50;58.60
62583;DHT22;48641;51.676;5.808;2023-02-28T03:47:00;12.50;58.70
62583;DHT22;48641;51.676;5.808;2023-02-28T03:49:32;12.50;58.70
62583;DHT22;48641;51.676;5.808;2023-02-28T03:52:02;12.50;58.70
62583;DHT22;48641;51.676;5.808;2023-02-28T03:54:31;12.50;59.70
62583;DHT22;48641;51.676;5.808;2023-02-28T03:57:12;12.50;58.70
62583;DHT22;48641;51.676;5.808;2023-02-28T03:59:45;12.50;58.70
62583;DHT22;48641;51.676;5.808;2023-02-28T04:02:13;12.50;58.70
62583;DHT22;48641;51.676;5.808;2023-02-28T04:04:38;12.50;58.70
62583;DHT22;48641;51.676;5.808;2023-02-28T04:07:13;12.50;58.70
62583;DHT22;48641;51.676;5.808;2023-02-28T04:09:39;12.50;58.70
62583;DHT22;48641;51.676;5.808;2023-02-28T04:12:05;12.50;58.70
62583;DHT22;48641;51.676;5.808;2023-02-28T04:14:31;12.50;58.70
62583;DHT22;48641;51.676;5.808;2023-02-28T04:16:56;12.50;58.70
62583;DHT22;48641;51.676;5.808;2023-02-28T04:19:22;12.50;58.70
62583;DHT22;48641;51.676;5.808;2023-02-28T04:21:50;12.50;58.70
62583;DHT22;48641;51.676;5.808;2023-02-28T04:24:21;12.50;58.60
62583;DHT22;48641;51.676;5.808;2023-02-28T04:26:49;12.50;58.60
62583;DHT22;48641;51.676;5.808;2023-02-28T04:29:24;12.50;58.60
62583;DHT22;48641;51.676;5.808;2023-02-28T04:31:50;12.50;58.60
62583;DHT22;48641;51.676;5.808;2023-02-28T04:34:18;12.50;58.60
62583;DHT22;48641;51.676;5.808;2023-02-28T04:36:44;12.50;58.60
62583;DHT22;48641;51.676;5.808;2023-02-28T04:39:11;12.50;58.60
62583;DHT22;48641;51.676;5.808;2023-02-28T04:41:37;12.50;58.60
62583;DHT22;48641;51.676;5.808;2023-02-28T04:44:02;12.50;58.60
62583;DHT22;48641;51.676;5.808;2023-02-28T04:46:28;12.50;58.60
62583;DHT22;48641;51.676;5.808;2023-02-28T04:48:54;12.50;58.60
62583;DHT22;48641;51.676;5.808;2023-02-28T04:51:20;12.40;58.50
62583;DHT22;48641;51.676;5.808;2023-02-28T04:53:47;12.50;58.60
62583;DHT22;48641;51.676;5.808;2023-02-28T04:56:15;12.50;58.60
62583;DHT22;48641;51.676;5.808;2023-02-28T04:58:41;12.50;58.60
62583;DHT22;48641;51.676;5.808;2023-02-28T05:01:29;12.40;58.50
62583;DHT22;48641;51.676;5.808;2023-02-28T05:03:57;12.50;59.50
62583;DHT22;48641;51.676;5.808;2023-02-28T05:06:24;12.40;58.60
62583;DHT22;48641;51.676;5.808;2023-02-28T05:08:50;12.40;58.50
62583;DHT22;48641;51.676;5.808;2023-02-28T05:11:24;12.40;58.60
62583;DHT22;48641;51.676;5.808;2023-02-28T05:13:52;12.40;59.50
62583;DHT22;48641;51.676;5.808;2023-02-28T05:16:18;12.40;58.70
62583;DHT22;48641;51.676;5.808;2023-02-28T05:18:44;12.40;58.60
62583;DHT22;48641;51.676;5.808;2023-02-28T05:21:34;12.50;58.80
62583;DHT22;48641;51.676;5.808;2023-02-28T05:24:06;12.50;58.70
62583;DHT22;48641;51.676;5.808;2023-02-28T05:26:41;12.40;58.90
62583;DHT22;48641;51.676;5.808;2023-02-28T05:29:07;12.40;58.90
62583;DHT22;48641;51.676;5.808;2023-02-28T05:31:33;12.40;58.90
62583;DHT22;48641;51.676;5.808;2023-02-28T05:33:59;12.40;59.00
62583;DHT22;48641;51.676;5.808;2023-02-28T05:36:25;12.40;60.00
62583;DHT22;48641;51.676;5.808;2023-02-28T05:38:51;12.40;59.10
62583;DHT22;48641;51.676;5.808;2023-02-28T05:41:17;12.40;59.10
62583;DHT22;48641;51.676;5.808;2023-02-28T05:43:44;12.40;59.10
62583;DHT22;48641;51.676;5.808;2023-02-28T05:46:11;12.40;59.10
62583;DHT22;48641;51.676;5.808;2023-02-28T05:48:38;12.40;59.10
62583;DHT22;48641;51.676;5.808;2023-02-28T05:51:05;12.40;59.10
62583;DHT22;48641;51.676;5.808;2023-02-28T05:53:31;12.40;59.10
62583;DHT22;48641;51.676;5.808;2023-02-28T05:55:57;12.40;59.20
62583;DHT22;48641;51.676;5.808;2023-02-28T05:58:23;12.40;59.10
62583;DHT22;48641;51.676;5.808;2023-02-28T06:00:50;12.50;59.20
62583;DHT22;48641;51.676;5.808;2023-02-28T06:03:16;12.50;59.20
62583;DHT22;48641;51.676;5.808;2023-02-28T06:05:42;12.40;59.10
62583;DHT22;48641;51.676;5.808;2023-02-28T06:08:07;12.50;60.20
62583;DHT22;48641;51.676;5.808;2023-02-28T06:10:34;12.50;59.20
62583;DHT22;48641;51.676;5.808;2023-02-28T06:13:01;12.50;59.30
62583;DHT22;48641;51.676;5.808;2023-02-28T06:15:28;12.50;60.20
62583;DHT22;48641;51.676;5.808;2023-02-28T06:17:53;12.50;59.20
62583;DHT22;48641;51.676;5.808;2023-02-28T06:20:19;12.50;59.20
62583;DHT22;48641;51.676;5.808;2023-02-28T06:22:44;12.50;59.20
62583;DHT22;48641;51.676;5.808;2023-02-28T06:25:10;12.50;59.20
62583;DHT22;48641;51.676;5.808;2023-02-28T06:27:36;12.50;59.20
62583;DHT22;48641;51.676;5.808;2023-02-28T06:30:05;12.50;59.20
62583;DHT22;48641;51.676;5.808;2023-02-28T06:32:31;12.50;59.30
62583;DHT22;48641;51.676;5.808;2023-02-28T06:34:58;12.60;59.20
62583;DHT22;48641;51.676;5.808;2023-02-28T06:37:24;12.60;59.30
62583;DHT22;48641;51.676;5.808;2023-02-28T07:24:19;12.90;59.10
62583;DHT22;48641;51.676;5.808;2023-02-28T07:26:45;13.00;59.10
62583;DHT22;48641;51.676;5.808;2023-02-28T07:29:10;13.00;59.00
62583;DHT22;48641;51.676;5.808;2023-02-28T07:31:36;13.00;59.00
62583;DHT22;48641;51.676;5.808;2023-02-28T07:34:02;13.00;59.00
62583;DHT22;48641;51.676;5.808;2023-02-28T07:36:28;13.00;60.00
62583;DHT22;48641;51.676;5.808;2023-02-28T07:38:54;13.00;58.90
62583;DHT22;48641;51.676;5.808;2023-02-28T07:41:21;13.00;58.90
62583;DHT22;48641;51.676;5.808;2023-02-28T07:43:47;13.00;58.90
62583;DHT22;48641;51.676;5.808;2023-02-28T07:46:16;13.00;58.90
62583;DHT22;48641;51.676;5.808;2023-02-28T07:48:42;13.00;58.90
62583;DHT22;48641;51.676;5.808;2023-02-28T07:51:08;13.00;58.90
62583;DHT22;48641;51.676;5.808;2023-02-28T07:53:34;13.00;58.90
62583;DHT22;48641;51.676;5.808;2023-02-28T07:56:01;13.00;58.90
62583;DHT22;48641;51.676;5.808;2023-02-28T07:58:28;13.00;58.90
62583;DHT22;48641;51.676;5.808;2023-02-28T08:00:55;13.10;58.90
62583;DHT22;48641;51.676;5.808;2023-02-28T08:03:22;13.10;58.90
62583;DHT22;48641;51.676;5.808;2023-02-28T08:05:48;13.10;58.90
62583;DHT22;48641;51.676;5.808;2023-02-28T08:08:15;13.10;58.80
62583;DHT22;48641;51.676;5.808;2023-02-28T08:10:41;13.10;58.80
62583;DHT22;48641;51.676;5.808;2023-02-28T08:13:07;13.10;58.80
62583;DHT22;48641;51.676;5.808;2023-02-28T08:15:33;13.10;58.80
62583;DHT22;48641;51.676;5.808;2023-02-28T08:17:59;13.10;58.80
62583;DHT22;48641;51.676;5.808;2023-02-28T08:20:26;13.10;58.80
62583;DHT22;48641;51.676;5.808;2023-02-28T08:22:52;13.10;58.80
62583;DHT22;48641;51.676;5.808;2023-02-28T08:25:18;13.10;58.80
62583;DHT22;48641;51.676;5.808;2023-02-28T08:27:44;13.10;58.80
62583;DHT22;48641;51.676;5.808;2023-02-28T08:30:11;13.10;58.70
62583;DHT22;48641;51.676;5.808;2023-02-28T08:32:37;13.10;58.80
62583;DHT22;48641;51.676;5.808;2023-02-28T08:35:05;13.10;58.80
62583;DHT22;48641;51.676;5.808;2023-02-28T08:37:30;13.10;58.70
62583;DHT22;48641;51.676;5.808;2023-02-28T08:39:56;13.10;58.80
62583;DHT22;48641;51.676;5.808;2023-02-28T08:42:22;13.00;58.70
62583;DHT22;48641;51.676;5.808;2023-02-28T08:44:48;13.00;58.70
62583;DHT22;48641;51.676;5.808;2023-02-28T08:47:13;13.00;58.80
62583;DHT22;48641;51.676;5.808;2023-02-28T08:49:39;13.00;58.80
62583;DHT22;48641;51.676;5.808;2023-02-28T08:52:04;13.00;58.80
62583;DHT22;48641;51.676;5.808;2023-02-28T08:54:30;13.00;58.80
62583;DHT22;48641;51.676;5.808;2023-02-28T08:56:57;13.00;58.90
62583;DHT22;48641;51.676;5.808;2023-02-28T08:59:23;13.00;58.90
62583;DHT22;48641;51.676;5.808;2023-02-28T09:01:48;13.00;58.90
62583;DHT22;48641;51.676;5.808;2023-02-28T09:04:14;13.00;58.90
62583;DHT22;48641;51.676;5.808;2023-02-28T09:06:39;13.00;58.90
62583;DHT22;48641;51.676;5.808;2023-02-28T09:09:05;13.00;58.90
62583;DHT22;48641;51.676;5.808;2023-02-28T09:11:36;13.00;58.90
62583;DHT22;48641;51.676;5.808;2023-02-28T09:14:04;13.00;58.90
62583;DHT22;48641;51.676;5.808;2023-02-28T09:16:34;13.00;58.90
62583;DHT22;48641;51.676;5.808;2023-02-28T09:53:28;13.00;59.10
62583;DHT22;48641;51.676;5.808;2023-02-28T09:56:04;13.00;59.10
62583;DHT22;48641;51.676;5.808;2023-02-28T09:58:46;13.00;59.20
62583;DHT22;48641;51.676;5.808;2023-02-28T10:01:40;13.00;59.10
62583;DHT22;48641;51.676;5.808;2023-02-28T10:07:04;13.00;59.10
62583;DHT22;48641;51.676;5.808;2023-02-28T10:09:32;13.00;59.20
62583;DHT22;48641;51.676;5.808;2023-02-28T10:12:04;13.00;59.10
62583;DHT22;48641;51.676;5.808;2023-02-28T10:14:33;13.00;59.10
62583;DHT22;48641;51.676;5.808;2023-02-28T10:17:07;13.10;59.10
62583;DHT22;48641;51.676;5.808;2023-02-28T10:19:56;13.10;59.20
62583;DHT22;48641;51.676;5.808;2023-02-28T10:25:26;13.10;59.00
62583;DHT22;48641;51.676;5.808;2023-02-28T10:28:13;13.10;59.20
62583;DHT22;48641;51.676;5.808;2023-02-28T10:30:46;13.20;59.10
62583;DHT22;48641;51.676;5.808;2023-02-28T10:33:32;13.10;59.10
62583;DHT22;48641;51.676;5.808;2023-02-28T10:36:00;13.20;59.10
62583;DHT22;48641;51.676;5.808;2023-02-28T10:38:35;13.10;59.10
62583;DHT22;48641;51.676;5.808;2023-02-28T10:43:37;13.10;59.20
62583;DHT22;48641;51.676;5.808;2023-02-28T10:48:39;13.10;59.30
62583;DHT22;48641;51.676;5.808;2023-02-28T10:51:08;13.10;59.30
62583;DHT22;48641;51.676;5.808;2023-02-28T10:53:50;13.10;59.30
62583;DHT22;48641;51.676;5.808;2023-02-28T10:56:22;13.20;59.40
62583;DHT22;48641;51.676;5.808;2023-02-28T10:58:49;13.20;59.50
62583;DHT22;48641;51.676;5.808;2023-02-28T11:01:23;13.20;59.50
62583;DHT22;48641;51.676;5.808;2023-02-28T11:03:50;13.20;59.50
62583;DHT22;48641;51.676;5.808;2023-02-28T11:06:22;13.20;59.50
62583;DHT22;48641;51.676;5.808;2023-02-28T11:08:53;13.20;59.70
62583;DHT22;48641;51.676;5.808;2023-02-28T11:11:21;13.20;59.60
62583;DHT22;48641;51.676;5.808;2023-02-28T11:13:51;13.30;59.70
62583;DHT22;48641;51.676;5.808;2023-02-28T11:16:18;13.30;59.60
62583;DHT22;48641;51.676;5.808;2023-02-28T11:21:23;13.30;59.50
62583;DHT22;48641;51.676;5.808;2023-02-28T11:23:52;13.30;59.40
62583;DHT22;48641;51.676;5.808;2023-02-28T11:26:36;13.30;59.40
62583;DHT22;48641;51.676;5.808;2023-02-28T11:31:41;13.40;59.40
62583;DHT22;48641;51.676;5.808;2023-02-28T11:34:26;13.40;59.30
62583;DHT22;48641;51.676;5.808;2023-02-28T11:36:54;13.40;59.50
62583;DHT22;48641;51.676;5.808;2023-02-28T11:39:23;13.40;59.50
62583;DHT22;48641;51.676;5.808;2023-02-28T11:45:00;13.50;59.30
62583;DHT22;48641;51.676;5.808;2023-02-28T11:50:42;13.50;59.20
62583;DHT22;48641;51.676;5.808;2023-02-28T11:58:33;13.50;59.10
62583;DHT22;48641;51.676;5.808;2023-02-28T12:04:17;13.60;59.00
62583;DHT22;48641;51.676;5.808;2023-02-28T12:07:30;13.60;58.90
62583;DHT22;48641;51.676;5.808;2023-02-28T12:21:05;13.70;58.80
62583;DHT22;48641;51.676;5.808;2023-02-28T12:26:37;13.80;58.70
62583;DHT22;48641;51.676;5.808;2023-02-28T12:29:09;13.80;58.80
62583;DHT22;48641;51.676;5.808;2023-02-28T12:31:38;13.90;58.80
62583;DHT22;48641;51.676;5.808;2023-02-28T12:34:10;14.00;58.80
62583;DHT22;48641;51.676;5.808;2023-02-28T12:36:37;14.00;58.60
62583;DHT22;48641;51.676;5.808;2023-02-28T12:39:17;14.00;58.50
62583;DHT22;48641;51.676;5.808;2023-02-28T12:41:45;14.10;58.40
62583;DHT22;48641;51.676;5.808;2023-02-28T12:44:17;14.10;58.30
62583;DHT22;48641;51.676;5.808;2023-02-28T12:46:49;14.10;58.20
62583;DHT22;48641;51.676;5.808;2023-02-28T12:49:25;14.20;58.20
62583;DHT22;48641;51.676;5.808;2023-02-28T12:51:53;14.20;58.10
62583;DHT22;48641;51.676;5.808;2023-02-28T12:57:14;14.30;58.10
62583;DHT22;48641;51.676;5.808;2023-02-28T12:59:56;14.30;58.20
62583;DHT22;48641;51.676;5.808;2023-02-28T13:10:18;14.30;58.20
62583;DHT22;48641;51.676;5.808;2023-02-28T13:12:51;14.30;58.10
62583;DHT22;48641;51.676;5.808;2023-02-28T13:15:24;14.40;58.10
62583;DHT22;48641;51.676;5.808;2023-02-28T13:17:53;14.40;58.10
62583;DHT22;48641;51.676;5.808;2023-02-28T13:20:23;14.40;57.10
62583;DHT22;48641;51.676;5.808;2023-02-28T13:22:51;14.40;57.10
62583;DHT22;48641;51.676;5.808;2023-02-28T13:27:59;14.40;57.30
62583;DHT22;48641;51.676;5.808;2023-02-28T13:36:30;14.40;56.40
62583;DHT22;48641;51.676;5.808;2023-02-28T13:44:00;14.40;57.00
62583;DHT22;48641;51.676;5.808;2023-02-28T13:46:27;14.40;57.20
62583;DHT22;48641;51.676;5.808;2023-02-28T13:48:53;14.40;57.20
62583;DHT22;48641;51.676;5.808;2023-02-28T13:51:51;14.40;57.80
62583;DHT22;48641;51.676;5.808;2023-02-28T14:00:23;14.50;57.50
62583;DHT22;48641;51.676;5.808;2023-02-28T14:03:03;14.50;57.70
62583;DHT22;48641;51.676;5.808;2023-02-28T14:05:34;14.40;57.70
62583;DHT22;48641;51.676;5.808;2023-02-28T14:08:10;14.50;57.80
62583;DHT22;48641;51.676;5.808;2023-02-28T14:10:45;14.50;57.70
62583;DHT22;48641;51.676;5.808;2023-02-28T14:16:00;14.50;57.80
62583;DHT22;48641;51.676;5.808;2023-02-28T14:20:58;14.50;57.90
62583;DHT22;48641;51.676;5.808;2023-02-28T14:32:23;14.50;57.90
62583;DHT22;48641;51.676;5.808;2023-02-28T14:34:57;14.50;57.90
62583;DHT22;48641;51.676;5.808;2023-02-28T14:37:30;14.50;58.00
62583;DHT22;48641;51.676;5.808;2023-02-28T14:39:58;14.40;58.20
62583;DHT22;48641;51.676;5.808;2023-02-28T14:42:36;14.40;58.20
62583;DHT22;48641;51.676;5.808;2023-02-28T14:45:22;14.50;58.20
62583;DHT22;48641;51.676;5.808;2023-02-28T14:47:50;14.50;58.10
62583;DHT22;48641;51.676;5.808;2023-02-28T14:50:26;14.40;58.10
62583;DHT22;48641;51.676;5.808;2023-02-28T14:52:53;14.50;58.10
62583;DHT22;48641;51.676;5.808;2023-02-28T14:55:24;14.50;58.10
62583;DHT22;48641;51.676;5.808;2023-02-28T14:57:56;14.50;58.10
62583;DHT22;48641;51.676;5.808;2023-02-28T15:00:31;14.50;58.10
62583;DHT22;48641;51.676;5.808;2023-02-28T15:02:58;14.50;58.10
62583;DHT22;48641;51.676;5.808;2023-02-28T15:05:31;14.40;58.10
62583;DHT22;48641;51.676;5.808;2023-02-28T15:08:09;14.40;58.20
62583;DHT22;48641;51.676;5.808;2023-02-28T15:10:36;14.40;58.20
62583;DHT22;48641;51.676;5.808;2023-02-28T15:13:07;14.40;58.30
62583;DHT22;48641;51.676;5.808;2023-02-28T15:20:52;14.40;58.40
62583;DHT22;48641;51.676;5.808;2023-02-28T15:23:20;14.40;58.40
62583;DHT22;48641;51.676;5.808;2023-02-28T15:25:47;14.40;58.40
62583;DHT22;48641;51.676;5.808;2023-02-28T15:28:20;14.40;58.40
62583;DHT22;48641;51.676;5.808;2023-02-28T15:30:58;14.40;58.30
62583;DHT22;48641;51.676;5.808;2023-02-28T15:33:29;14.40;58.30
62583;DHT22;48641;51.676;5.808;2023-02-28T15:36:14;14.40;58.30
62583;DHT22;48641;51.676;5.808;2023-02-28T15:38:40;14.40;58.20
62583;DHT22;48641;51.676;5.808;2023-02-28T15:41:26;14.40;58.30
62583;DHT22;48641;51.676;5.808;2023-02-28T15:46:43;14.40;58.20
62583;DHT22;48641;51.676;5.808;2023-02-28T15:49:19;14.40;58.30
62583;DHT22;48641;51.676;5.808;2023-02-28T15:51:46;14.40;58.20
62583;DHT22;48641;51.676;5.808;2023-02-28T15:54:34;14.40;58.30
62583;DHT22;48641;51.676;5.808;2023-02-28T15:57:07;14.40;58.20
62583;DHT22;48641;51.676;5.808;2023-02-28T15:59:36;14.40;58.40
62583;DHT22;48641;51.676;5.808;2023-02-28T16:04:28;14.30;58.50
62583;DHT22;48641;51.676;5.808;2023-02-28T16:07:00;14.30;58.50
62583;DHT22;48641;51.676;5.808;2023-02-28T16:09:26;14.30;58.60
62583;DHT22;48641;51.676;5.808;2023-02-28T16:11:55;14.30;58.60
62583;DHT22;48641;51.676;5.808;2023-02-28T16:14:25;14.30;58.60
62583;DHT22;48641;51.676;5.808;2023-02-28T16:17:06;14.30;58.70
62583;DHT22;48641;51.676;5.808;2023-02-28T16:19:32;14.30;58.70
62583;DHT22;48641;51.676;5.808;2023-02-28T16:21:57;14.30;58.70
62583;DHT22;48641;51.676;5.808;2023-02-28T16:24:23;14.30;58.70
62583;DHT22;48641;51.676;5.808;2023-02-28T16:26:50;14.30;58.70
62583;DHT22;48641;51.676;5.808;2023-02-28T16:29:31;14.30;58.70
62583;DHT22;48641;51.676;5.808;2023-02-28T16:31:57;14.30;58.40
62583;DHT22;48641;51.676;5.808;2023-02-28T16:34:23;14.30;58.50
62583;DHT22;48641;51.676;5.808;2023-02-28T16:36:49;14.30;58.60
62583;DHT22;48641;51.676;5.808;2023-02-28T16:39:15;14.30;58.50
62583;DHT22;48641;51.676;5.808;2023-02-28T16:41:45;14.30;58.60
62583;DHT22;48641;51.676;5.808;2023-02-28T16:44:21;14.30;58.60
62583;DHT22;48641;51.676;5.808;2023-02-28T16:46:48;14.30;59.60
62583;DHT22;48641;51.676;5.808;2023-02-28T16:49:14;14.30;58.60
62583;DHT22;48641;51.676;5.808;2023-02-28T16:51:39;14.30;58.60
62583;DHT22;48641;51.676;5.808;2023-02-28T16:54:05;14.30;58.70
62583;DHT22;48641;51.676;5.808;2023-02-28T16:56:31;14.30;58.70
62583;DHT22;48641;51.676;5.808;2023-02-28T16:59:00;14.40;59.70
62583;DHT22;48641;51.676;5.808;2023-02-28T17:01:27;14.40;58.70
62583;DHT22;48641;51.676;5.808;2023-02-28T17:03:54;14.40;58.70
62583;DHT22;48641;51.676;5.808;2023-02-28T17:06:25;14.50;58.70
62583;DHT22;48641;51.676;5.808;2023-02-28T17:08:52;14.50;58.60
62583;DHT22;48641;51.676;5.808;2023-02-28T17:11:18;14.50;58.60
62583;DHT22;48641;51.676;5.808;2023-02-28T17:13:44;14.50;58.50
62583;DHT22;48641;51.676;5.808;2023-02-28T17:16:20;14.60;58.50
62583;DHT22;48641;51.676;5.808;2023-02-28T17:18:47;14.60;58.40
62583;DHT22;48641;51.676;5.808;2023-02-28T17:21:15;14.60;58.40
62583;DHT22;48641;51.676;5.808;2023-02-28T17:23:41;14.60;58.30
62583;DHT22;48641;51.676;5.808;2023-02-28T17:26:11;14.60;58.30
62583;DHT22;48641;51.676;5.808;2023-02-28T17:28:38;14.60;58.30
62583;DHT22;48641;51.676;5.808;2023-02-28T17:31:03;14.60;58.30
62583;DHT22;48641;51.676;5.808;2023-02-28T18:26:53;14.60;58.30
62583;DHT22;48641;51.676;5.808;2023-02-28T18:29:24;14.60;58.30
62583;DHT22;48641;51.676;5.808;2023-02-28T18:31:51;14.60;58.40
62583;DHT22;48641;51.676;5.808;2023-02-28T18:34:17;14.60;58.40
62583;DHT22;48641;51.676;5.808;2023-02-28T18:36:43;14.60;58.30
62583;DHT22;48641;51.676;5.808;2023-02-28T18:39:11;14.60;58.30
62583;DHT22;48641;51.676;5.808;2023-02-28T18:41:37;14.60;58.40
62583;DHT22;48641;51.676;5.808;2023-02-28T18:44:03;14.70;58.30
62583;DHT22;48641;51.676;5.808;2023-02-28T18:46:28;14.70;58.30
62583;DHT22;48641;51.676;5.808;2023-02-28T18:48:54;14.70;58.20
62583;DHT22;48641;51.676;5.808;2023-02-28T18:51:22;14.70;58.20
62583;DHT22;48641;51.676;5.808;2023-02-28T18:53:48;14.70;58.20
62583;DHT22;48641;51.676;5.808;2023-02-28T18:56:17;14.70;58.10
62583;DHT22;48641;51.676;5.808;2023-02-28T18:58:44;14.70;58.10
62583;DHT22;48641;51.676;5.808;2023-02-28T19:01:18;14.70;58.00
62583;DHT22;48641;51.676;5.808;2023-02-28T19:03:46;14.70;58.00
62583;DHT22;48641;51.676;5.808;2023-02-28T19:06:12;14.70;59.00
62583;DHT22;48641;51.676;5.808;2023-02-28T19:08:38;14.70;58.00
62583;DHT22;48641;51.676;5.808;2023-02-28T19:11:12;14.70;58.10
62583;DHT22;48641;51.676;5.808;2023-02-28T19:13:38;14.70;58.00
62583;DHT22;48641;51.676;5.808;2023-02-28T19:16:06;14.70;58.00
62583;DHT22;48641;51.676;5.808;2023-02-28T19:18:32;14.70;58.00
62583;DHT22;48641;51.676;5.808;2023-02-28T19:20:58;14.70;58.00
62583;DHT22;48641;51.676;5.808;2023-02-28T19:23:24;14.70;58.00
62583;DHT22;48641;51.676;5.808;2023-02-28T19:25:50;14.70;58.00
62583;DHT22;48641;51.676;5.808;2023-02-28T19:28:15;14.70;58.00
62583;DHT22;48641;51.676;5.808;2023-02-28T19:30:49;14.70;59.00
62583;DHT22;48641;51.676;5.808;2023-02-28T19:33:15;14.70;58.00
62583;DHT22;48641;51.676;5.808;2023-02-28T19:35:41;14.70;58.00
62583;DHT22;48641;51.676;5.808;2023-02-28T19:38:07;14.70;58.00
62583;DHT22;48641;51.676;5.808;2023-02-28T19:40:34;14.70;57.90
62583;DHT22;48641;51.676;5.808;2023-02-28T19:42:59;14.70;57.90
62583;DHT22;48641;51.676;5.808;2023-02-28T19:45:25;14.70;57.90
62583;DHT22;48641;51.676;5.808;2023-02-28T19:47:51;14.70;57.80
62583;DHT22;48641;51.676;5.808;2023-02-28T19:50:17;14.70;57.80
62583;DHT22;48641;51.676;5.808;2023-02-28T19:52:42;14.70;57.80
62583;DHT22;48641;51.676;5.808;2023-02-28T19:55:09;14.70;57.80
62583;DHT22;48641;51.676;5.808;2023-02-28T19:57:35;14.70;57.80